createdAt,value
2023-01-11T00:02:59.816Z,100727.02
2023-01-11T00:06:04.984Z,100725.35
2023-01-11T00:09:08.928Z,100727.21
2023-01-11T00:12:14.238Z,100728.73
2023-01-11T00:15:18.443Z,100730.64
2023-01-11T00:18:22.516Z,100738.15
2023-01-11T00:21:26.888Z,100740.01
2023-01-11T00:24:30.798Z,100745.20
2023-01-11T00:27:34.702Z,100744.25
2023-01-11T00:30:39.022Z,100738.53
2023-01-11T00:33:43.192Z,100736.67
2023-01-11T00:36:47.124Z,100743.25
2023-01-11T00:39:51.577Z,100749.13
2023-01-11T00:43:14.162Z,100755.01
2023-01-11T00:46:36.937Z,100756.33
2023-01-11T00:49:41.036Z,100754.36
2023-01-11T00:52:44.918Z,100750.56
2023-01-11T00:55:48.881Z,100752.20
2023-01-11T00:58:52.801Z,100759.33
2023-01-11T01:01:56.793Z,100764.79
2023-01-11T01:05:00.703Z,100767.36
2023-01-11T01:08:04.881Z,100772.89
2023-01-11T01:11:08.812Z,100769.70
2023-01-11T01:14:29.959Z,100776.34
2023-01-11T01:17:33.879Z,100779.92
2023-01-11T01:20:37.803Z,100776.85
2023-01-11T01:23:41.700Z,100779.13
2023-01-11T01:26:45.587Z,100778.73
2023-01-11T01:29:49.482Z,100781.17
2023-01-11T01:32:53.410Z,100779.52
2023-01-11T01:35:57.306Z,100780.52
2023-01-11T01:39:01.918Z,100777.88
2023-01-11T01:42:06.277Z,100781.80
2023-01-11T01:45:24.066Z,100782.83
2023-01-11T01:48:28.449Z,100780.40
2023-01-11T01:51:43.228Z,100776.73
2023-01-11T01:54:49.165Z,100777.48
2023-01-11T01:57:55.306Z,100779.27
2023-01-11T02:01:19.205Z,100777.70
2023-01-11T02:04:29.311Z,100775.21
2023-01-11T02:07:36.498Z,100777.59
2023-01-11T02:10:40.712Z,100772.95
2023-01-11T02:13:46.205Z,100774.98
2023-01-11T02:16:50.420Z,100767.27
2023-01-11T02:20:12.457Z,100765.77
2023-01-11T02:23:45.060Z,100767.79
2023-01-11T02:27:00.922Z,100768.93
2023-01-11T02:30:26.676Z,100767.07
2023-01-11T02:33:40.097Z,100766.83
2023-01-11T02:37:09.169Z,100767.42
2023-01-11T02:40:26.057Z,100762.64
2023-01-11T02:44:04.955Z,100767.70
2023-01-11T02:47:18.351Z,100766.68
2023-01-11T02:50:43.883Z,100765.95
2023-01-11T02:54:01.037Z,100770.03
2023-01-11T02:57:05.898Z,100764.97
2023-01-11T03:00:13.085Z,100769.42
2023-01-11T03:03:24.817Z,100761.77
2023-01-11T03:06:34.384Z,100758.14
2023-01-11T03:09:46.273Z,100759.08
2023-01-11T03:13:19.314Z,100761.06
2023-01-11T03:16:26.399Z,100759.60
2023-01-11T03:19:47.059Z,100758.64
2023-01-11T03:23:16.757Z,100758.92
2023-01-11T03:26:51.421Z,100761.73
2023-01-11T03:30:04.217Z,100762.52
2023-01-11T03:33:19.351Z,100761.94
2023-01-11T03:36:31.756Z,100761.80
2023-01-11T03:39:47.352Z,100759.16
2023-01-11T03:43:13.842Z,100754.14
2023-01-11T03:46:49.056Z,100747.00
2023-01-11T03:49:58.904Z,100743.48
2023-01-11T03:53:06.847Z,100743.98
2023-01-11T03:56:14.248Z,100742.42
2023-01-11T03:59:18.380Z,100739.29
2023-01-11T04:02:25.823Z,100740.64
2023-01-11T04:05:30.338Z,100745.41
2023-01-11T04:08:34.217Z,100749.64
2023-01-11T04:11:38.105Z,100754.33
2023-01-11T04:14:42.056Z,100758.64
2023-01-11T04:17:45.974Z,100758.31
2023-01-11T04:20:49.936Z,100758.82
2023-01-11T04:23:54.563Z,100759.53
2023-01-11T04:26:58.493Z,100762.54
2023-01-11T04:30:02.740Z,100758.73
2023-01-11T04:33:06.698Z,100750.30
2023-01-11T04:36:11.444Z,100747.95
2023-01-11T04:39:15.359Z,100748.15
2023-01-11T04:42:19.283Z,100745.48
2023-01-11T04:45:23.379Z,100748.14
2023-01-11T04:48:27.338Z,100750.29
2023-01-11T04:51:31.262Z,100744.85
2023-01-11T04:54:35.223Z,100748.23
2023-01-11T04:57:39.188Z,100749.64
2023-01-11T05:00:43.120Z,100750.59
2023-01-11T05:03:47.513Z,100749.35
2023-01-11T05:06:52.496Z,100751.16
2023-01-11T05:09:56.578Z,100757.29
2023-01-11T05:13:00.491Z,100757.98
2023-01-11T05:16:05.383Z,100756.46
2023-01-11T05:19:11.387Z,100757.61
2023-01-11T05:22:15.339Z,100755.41
2023-01-11T05:25:19.324Z,100755.95
2023-01-11T05:28:23.218Z,100762.73
2023-01-11T05:31:28.162Z,100759.80
2023-01-11T05:34:32.399Z,100756.88
2023-01-11T05:37:36.351Z,100752.41
2023-01-11T05:40:40.330Z,100748.80
2023-01-11T05:44:04.826Z,100749.27
2023-01-11T05:47:08.735Z,100747.18
2023-01-11T05:50:12.657Z,100744.56
2023-01-11T05:53:16.660Z,100740.79
2023-01-11T05:56:20.638Z,100737.81
2023-01-11T05:59:27.001Z,100736.33
2023-01-11T06:02:31.066Z,100734.59
2023-01-11T06:05:35.265Z,100732.48
2023-01-11T06:08:39.395Z,100730.00
2023-01-11T06:11:43.343Z,100728.80
2023-01-11T06:14:47.329Z,100721.98
2023-01-11T06:17:51.254Z,100726.83
2023-01-11T06:20:56.663Z,100729.46
2023-01-11T06:24:00.717Z,100731.14
2023-01-11T06:27:04.639Z,100733.77
2023-01-11T06:30:09.853Z,100737.48
2023-01-11T06:33:13.883Z,100739.85
2023-01-11T06:36:17.901Z,100737.00
2023-01-11T06:39:21.917Z,100732.60
2023-01-11T06:42:25.829Z,100733.23
2023-01-11T06:45:30.946Z,100735.06
2023-01-11T06:48:36.266Z,100735.05
2023-01-11T06:51:40.437Z,100730.48
2023-01-11T06:54:44.436Z,100726.35
2023-01-11T06:57:48.709Z,100725.03
2023-01-11T07:00:54.797Z,100726.16
2023-01-11T07:03:59.169Z,100727.09
2023-01-11T07:07:03.280Z,100728.79
2023-01-11T07:10:13.237Z,100730.34
2023-01-11T07:13:19.153Z,100731.27
2023-01-11T07:16:23.277Z,100730.34
2023-01-11T07:19:27.410Z,100732.91
2023-01-11T07:22:35.014Z,100735.20
2023-01-11T07:25:39.165Z,100736.54
2023-01-11T07:28:43.861Z,100736.95
2023-01-11T07:31:48.126Z,100729.66
2023-01-11T07:34:52.124Z,100724.60
2023-01-11T07:37:56.341Z,100721.13
2023-01-11T07:41:00.571Z,100716.44
2023-01-11T07:44:04.923Z,100712.70
2023-01-11T07:47:09.249Z,100717.07
2023-01-11T07:50:13.689Z,100718.79
2023-01-11T07:53:19.039Z,100721.08
2023-01-11T07:56:23.679Z,100717.61
2023-01-11T07:59:27.827Z,100718.70
2023-01-11T08:02:32.023Z,100720.63
2023-01-11T08:05:36.505Z,100724.58
2023-01-11T08:08:41.325Z,100724.35
2023-01-11T08:12:04.079Z,100724.52
2023-01-11T08:15:10.649Z,100720.94
2023-01-11T08:18:14.669Z,100717.79
2023-01-11T08:21:18.798Z,100715.21
2023-01-11T08:24:22.899Z,100716.34
2023-01-11T08:27:26.816Z,100715.86
2023-01-11T08:30:30.929Z,100716.05
2023-01-11T08:33:34.847Z,100713.90
2023-01-11T08:36:38.864Z,100709.64
2023-01-11T08:39:43.313Z,100712.16
2023-01-11T08:42:47.454Z,100712.45
2023-01-11T08:45:51.728Z,100711.08
2023-01-11T08:48:55.743Z,100717.08
2023-01-11T08:52:00.265Z,100721.39
2023-01-11T08:55:07.761Z,100720.36
2023-01-11T08:58:11.685Z,100719.48
2023-01-11T09:01:15.729Z,100719.16
2023-01-11T09:04:25.029Z,100718.91
2023-01-11T09:07:29.677Z,100719.32
2023-01-11T09:10:34.684Z,100711.23
2023-01-11T09:13:39.030Z,100710.88
2023-01-11T09:16:43.046Z,100707.80
2023-01-11T09:19:46.987Z,100703.37
2023-01-11T09:22:53.190Z,100702.86
2023-01-11T09:25:57.244Z,100698.92
2023-01-11T09:29:01.220Z,100695.37
2023-01-11T09:32:06.184Z,100692.16
2023-01-11T09:35:10.319Z,100691.20
2023-01-11T09:38:14.341Z,100680.45
2023-01-11T09:41:33.401Z,100677.70
2023-01-11T09:44:50.019Z,100672.40
2023-01-11T09:48:37.163Z,100676.58
2023-01-11T09:51:43.404Z,100673.33
2023-01-11T09:54:48.235Z,100672.89
2023-01-11T09:57:55.255Z,100668.95
2023-01-11T10:01:13.343Z,100670.66
2023-01-11T10:04:40.354Z,100665.97
2023-01-11T10:18:35.341Z,100656.42
2023-01-11T10:19:25.616Z,100653.70
2023-01-11T10:22:33.699Z,100650.19
2023-01-11T10:25:51.813Z,100650.60
2023-01-11T10:29:09.996Z,100650.25
2023-01-11T10:32:38.804Z,100646.87
2023-01-11T10:36:12.409Z,100647.00
2023-01-11T10:39:33.927Z,100644.21
2023-01-11T10:42:46.018Z,100645.31
2023-01-11T10:45:54.776Z,100642.59
2023-01-11T10:49:25.812Z,100644.02
2023-01-11T10:52:48.119Z,100637.70
2023-01-11T10:56:12.870Z,100634.84
2023-01-11T10:59:52.481Z,100638.98
2023-01-11T11:03:12.094Z,100634.80
2023-01-11T11:06:33.545Z,100627.62
2023-01-11T11:09:50.540Z,100623.29
2023-01-11T11:13:11.555Z,100626.04
2023-01-11T11:16:24.746Z,100617.76
2023-01-11T11:19:32.878Z,100614.24
2023-01-11T11:22:36.914Z,100603.60
2023-01-11T11:25:43.509Z,100591.40
2023-01-11T11:29:07.876Z,100585.64
2023-01-11T11:32:21.325Z,100573.39
2023-01-11T11:35:56.880Z,100564.92
2023-01-11T11:39:30.592Z,100558.39
2023-01-11T11:42:34.501Z,100551.04
2023-01-11T11:46:10.924Z,100546.39
2023-01-11T11:49:18.193Z,100538.54
2023-01-11T11:52:22.324Z,100543.52
2023-01-11T11:55:33.849Z,100536.15
2023-01-11T11:58:40.328Z,100538.46
2023-01-11T12:01:48.537Z,100536.02
2023-01-11T12:04:53.836Z,100536.79
2023-01-11T12:07:58.965Z,100535.42
2023-01-11T12:11:06.619Z,100539.46
2023-01-11T12:14:10.572Z,100538.48
2023-01-11T12:17:24.949Z,100535.95
2023-01-11T12:20:39.197Z,100534.34
2023-01-11T12:23:43.511Z,100528.81
2023-01-11T12:27:01.788Z,100522.30
2023-01-11T12:30:40.022Z,100518.52
2023-01-11T12:34:04.846Z,100512.71
2023-01-11T12:37:27.764Z,100512.48
2023-01-11T12:40:44.070Z,100511.79
2023-01-11T12:44:09.667Z,100499.10
2023-01-11T12:47:16.761Z,100495.96
2023-01-11T12:50:25.400Z,100488.76
2023-01-11T12:53:54.382Z,100481.64
2023-01-11T12:57:16.843Z,100475.73
2023-01-11T13:01:06.811Z,100475.23
2023-01-11T13:04:58.978Z,100471.67
2023-01-11T13:08:09.128Z,100468.67
2023-01-11T13:11:37.874Z,100468.17
2023-01-11T13:15:09.630Z,100461.05
2023-01-11T13:18:33.772Z,100458.70
2023-01-11T13:21:43.417Z,100456.78
2023-01-11T13:24:50.436Z,100461.73
2023-01-11T13:27:57.604Z,100467.97
2023-01-11T13:31:05.151Z,100466.16
2023-01-11T13:34:22.835Z,100461.61
2023-01-11T13:37:53.437Z,100458.92
2023-01-11T13:41:08.265Z,100457.83
2023-01-11T13:44:20.889Z,100458.06
2023-01-11T13:47:42.469Z,100452.10
2023-01-11T13:51:01.976Z,100447.09
2023-01-11T13:54:16.741Z,100445.23
2023-01-11T13:57:34.239Z,100442.17
2023-01-11T14:01:00.054Z,100443.13
2023-01-11T14:04:30.282Z,100441.20
2023-01-11T14:07:50.836Z,100437.42
2023-01-11T14:11:10.108Z,100437.80
2023-01-11T14:15:07.661Z,100435.72
2023-01-11T14:18:37.109Z,100435.00
2023-01-11T14:22:16.416Z,100436.20
2023-01-11T14:25:34.852Z,100431.64
2023-01-11T14:28:54.265Z,100432.85
2023-01-11T14:32:23.656Z,100433.29
2023-01-11T14:35:39.583Z,100431.80
2023-01-11T14:39:02.656Z,100424.14
2023-01-11T14:42:31.092Z,100420.41
2023-01-11T14:46:04.115Z,100414.39
2023-01-11T14:49:17.262Z,100409.73
2023-01-11T14:52:39.117Z,100409.89
2023-01-11T14:55:45.266Z,100406.73
2023-01-11T14:59:04.024Z,100400.89
2023-01-11T15:02:15.713Z,100395.59
2023-01-11T15:05:29.518Z,100395.55
2023-01-11T15:08:45.961Z,100391.35
2023-01-11T15:11:49.975Z,100392.64
2023-01-11T15:15:03.210Z,100392.98
2023-01-11T15:18:19.715Z,100387.98
2023-01-11T15:21:25.199Z,100385.68
2023-01-11T15:24:34.093Z,100383.40
2023-01-11T15:27:38.822Z,100382.70
2023-01-11T15:30:52.068Z,100370.72
2023-01-11T15:34:02.235Z,100374.25
2023-01-11T15:37:36.758Z,100371.31
2023-01-11T15:40:43.286Z,100363.78
2023-01-11T15:44:11.844Z,100361.31
2023-01-11T15:47:27.921Z,100363.77
2023-01-11T15:50:51.568Z,100363.84
2023-01-11T15:54:22.747Z,100368.38
2023-01-11T15:57:53.045Z,100362.48
2023-01-11T16:01:32.308Z,100365.06
2023-01-11T16:04:44.645Z,100356.42
2023-01-11T16:08:00.953Z,100350.98
2023-01-11T16:11:08.030Z,100348.79
2023-01-11T16:14:53.435Z,100341.91
2023-01-11T16:18:10.741Z,100346.06
2023-01-11T16:21:32.147Z,100349.16
2023-01-11T16:24:45.085Z,100353.96
2023-01-11T16:27:54.532Z,100352.39
2023-01-11T16:31:01.742Z,100349.44
2023-01-11T16:34:08.451Z,100347.14
2023-01-11T16:37:30.028Z,100349.21
2023-01-11T16:40:37.618Z,100344.85
2023-01-11T16:43:59.055Z,100348.46
2023-01-11T16:47:18.022Z,100344.83
2023-01-11T16:50:25.268Z,100345.63
2023-01-11T16:53:34.268Z,100340.83
2023-01-11T16:56:38.386Z,100338.71
2023-01-11T16:59:42.339Z,100336.73
2023-01-11T17:02:48.952Z,100327.60
2023-01-11T17:06:13.248Z,100318.40
2023-01-11T17:09:21.589Z,100318.95
2023-01-11T17:12:26.503Z,100322.34
2023-01-11T17:15:48.297Z,100324.05
2023-01-11T17:18:52.338Z,100329.89
2023-01-11T17:22:25.142Z,100334.59
2023-01-11T17:25:43.873Z,100339.29
2023-01-11T17:28:51.506Z,100336.27
2023-01-11T17:31:57.035Z,100337.20
2023-01-11T17:35:10.676Z,100336.06
2023-01-11T17:38:16.967Z,100336.45
2023-01-11T17:41:40.017Z,100339.01
2023-01-11T17:45:04.352Z,100332.71
2023-01-11T17:48:14.154Z,100332.59
2023-01-11T17:51:27.716Z,100330.86
2023-01-11T17:54:32.096Z,100324.45
2023-01-11T17:57:36.105Z,100320.08
2023-01-11T18:00:42.415Z,100318.05
2023-01-11T18:03:49.254Z,100317.83
2023-01-11T18:06:56.290Z,100319.92
2023-01-11T18:10:03.179Z,100315.44
2023-01-11T18:13:22.847Z,100318.13
2023-01-11T18:16:27.112Z,100310.73
2023-01-11T18:19:39.699Z,100311.61
2023-01-11T18:23:20.170Z,100308.60
2023-01-11T18:26:29.439Z,100302.09
2023-01-11T18:29:36.406Z,100299.25
2023-01-11T18:32:44.396Z,100284.20
2023-01-11T18:35:51.790Z,100290.50
2023-01-11T18:38:56.222Z,100289.86
2023-01-11T18:42:10.473Z,100290.02
2023-01-11T18:45:15.400Z,100273.34
2023-01-11T18:48:19.522Z,100265.41
2023-01-11T18:51:35.815Z,100260.55
2023-01-11T18:54:40.655Z,100258.14
2023-01-11T18:57:44.580Z,100250.92
2023-01-11T19:00:48.454Z,100254.36
2023-01-11T19:03:52.517Z,100250.71
2023-01-11T19:06:56.522Z,100253.77
2023-01-11T19:10:00.443Z,100267.60
2023-01-11T19:13:04.477Z,100271.80
2023-01-11T19:16:09.014Z,100260.43
2023-01-11T19:19:13.106Z,100253.61
2023-01-11T19:22:17.119Z,100251.30
2023-01-11T19:25:21.313Z,100249.06
2023-01-11T19:28:25.546Z,100248.30
2023-01-11T19:31:29.679Z,100244.97
2023-01-11T19:34:34.516Z,100241.73
2023-01-11T19:37:38.447Z,100247.47
2023-01-11T19:40:42.344Z,100254.41
2023-01-11T19:43:47.160Z,100255.17
2023-01-11T19:46:57.051Z,100259.33
2023-01-11T19:50:13.335Z,100255.21
2023-01-11T19:53:17.228Z,100257.29
2023-01-11T19:56:21.129Z,100255.38
2023-01-11T19:59:25.177Z,100258.77
2023-01-11T20:02:29.506Z,100253.08
2023-01-11T20:05:33.565Z,100249.41
2023-01-11T20:08:40.586Z,100250.98
2023-01-11T20:11:45.743Z,100253.77
2023-01-11T20:14:50.175Z,100249.34
2023-01-11T20:17:54.080Z,100251.55
2023-01-11T20:20:58.202Z,100254.34
2023-01-11T20:24:03.411Z,100249.97
2023-01-11T20:27:07.645Z,100244.95
2023-01-11T20:30:12.175Z,100240.26
2023-01-11T20:33:16.114Z,100235.00
2023-01-11T20:36:20.007Z,100235.88
2023-01-11T20:39:25.456Z,100234.40
2023-01-11T20:42:30.785Z,100228.05
2023-01-11T20:45:35.484Z,100221.13
2023-01-11T20:48:39.464Z,100214.63
2023-01-11T20:51:44.800Z,100211.02
2023-01-11T20:54:48.746Z,100207.58
2023-01-11T20:57:52.933Z,100209.87
2023-01-11T21:01:04.128Z,100215.06
2023-01-11T21:04:10.574Z,100213.31
2023-01-11T21:07:14.486Z,100203.10
2023-01-11T21:10:18.416Z,100196.42
2023-01-11T21:13:22.957Z,100190.41
2023-01-11T21:16:29.308Z,100188.33
2023-01-11T21:19:33.223Z,100186.79
2023-01-11T21:22:37.143Z,100183.56
2023-01-11T21:25:41.626Z,100184.66
2023-01-11T21:28:51.628Z,100188.16
2023-01-11T21:31:55.640Z,100187.43
2023-01-11T21:34:59.543Z,100185.02
2023-01-11T21:38:03.462Z,100186.92
2023-01-11T21:41:10.162Z,100194.03
2023-01-11T21:44:15.387Z,100190.25
2023-01-11T21:47:19.934Z,100194.93
2023-01-11T21:50:24.008Z,100196.13
2023-01-11T21:53:33.078Z,100198.36
2023-01-11T21:56:37.623Z,100195.95
2023-01-11T21:59:41.515Z,100191.84
2023-01-11T22:02:45.542Z,100194.84
2023-01-11T22:05:49.515Z,100191.21
2023-01-11T22:08:53.489Z,100188.09
2023-01-11T22:11:57.556Z,100187.23
2023-01-11T22:15:01.502Z,100191.31
2023-01-11T22:18:05.570Z,100196.42
2023-01-11T22:21:14.658Z,100190.28
2023-01-11T22:24:18.679Z,100191.42
2023-01-11T22:27:22.885Z,100191.53
2023-01-11T22:30:27.072Z,100188.23
2023-01-11T22:33:31.471Z,100183.24
2023-01-11T22:36:35.450Z,100176.29
2023-01-11T22:39:40.704Z,100170.85
2023-01-11T22:42:44.595Z,100172.59
2023-01-11T22:45:58.388Z,100171.75
2023-01-11T22:49:03.403Z,100176.30
2023-01-11T22:52:07.410Z,100176.29
2023-01-11T22:55:11.432Z,100170.52
2023-01-11T22:58:16.040Z,100170.95
2023-01-11T23:01:23.447Z,100173.55
2023-01-11T23:04:27.467Z,100178.02
2023-01-11T23:07:31.346Z,100185.02
2023-01-11T23:10:35.307Z,100185.39
2023-01-11T23:13:58.989Z,100181.22
2023-01-11T23:17:06.863Z,100182.99
2023-01-11T23:20:11.819Z,100185.23
2023-01-11T23:23:15.830Z,100191.81
2023-01-11T23:26:20.570Z,100186.35
2023-01-11T23:29:24.885Z,100184.49
2023-01-11T23:32:29.030Z,100182.95
2023-01-11T23:35:33.327Z,100183.94
2023-01-11T23:38:37.767Z,100178.66
2023-01-11T23:42:00.846Z,100178.44
2023-01-11T23:45:06.129Z,100172.41
2023-01-11T23:48:10.110Z,100173.45
2023-01-11T23:51:14.198Z,100171.02
2023-01-11T23:54:18.111Z,100176.33
2023-01-11T23:57:23.152Z,100180.33
